sensor_id;sensor_type;location;lat;lon;timestamp;temperature;humidity
42141;DHT22;27809;51.864;5.646;2023-05-14T00:00:16;12.60;99.00
42141;DHT22;27809;51.864;5.646;2023-05-14T00:02:42;12.30;99.90
42141;DHT22;27809;51.864;5.646;2023-05-14T00:05:08;12.30;99.90
42141;DHT22;27809;51.864;5.646;2023-05-14T00:07:34;12.30;99.90
42141;DHT22;27809;51.864;5.646;2023-05-14T00:09:59;12.30;99.90
42141;DHT22;27809;51.864;5.646;2023-05-14T00:12:25;12.30;99.90
42141;DHT22;27809;51.864;5.646;2023-05-14T00:14:51;12.30;99.90
42141;DHT22;27809;51.864;5.646;2023-05-14T00:17:17;12.20;99.90
42141;DHT22;27809;51.864;5.646;2023-05-14T00:19:43;12.20;99.90
42141;DHT22;27809;51.864;5.646;2023-05-14T00:22:09;12.10;99.90
42141;DHT22;27809;51.864;5.646;2023-05-14T00:24:35;12.00;99.90
42141;DHT22;27809;51.864;5.646;2023-05-14T00:27:01;12.10;99.90
42141;DHT22;27809;51.864;5.646;2023-05-14T00:29:26;12.10;99.90
42141;DHT22;27809;51.864;5.646;2023-05-14T00:31:52;12.00;99.90
42141;DHT22;27809;51.864;5.646;2023-05-14T00:34:17;12.00;99.90
42141;DHT22;27809;51.864;5.646;2023-05-14T00:36:43;12.00;99.90
42141;DHT22;27809;51.864;5.646;2023-05-14T00:39:08;12.00;99.90
42141;DHT22;27809;51.864;5.646;2023-05-14T00:41:34;11.90;99.90
42141;DHT22;27809;51.864;5.646;2023-05-14T00:44:01;11.90;99.90
42141;DHT22;27809;51.864;5.646;2023-05-14T00:46:27;11.80;99.90
42141;DHT22;27809;51.864;5.646;2023-05-14T00:48:53;11.80;99.90
42141;DHT22;27809;51.864;5.646;2023-05-14T00:51:18;11.90;99.90
42141;DHT22;27809;51.864;5.646;2023-05-14T00:53:45;11.90;99.90
42141;DHT22;27809;51.864;5.646;2023-05-14T00:56:11;11.80;99.90
42141;DHT22;27809;51.864;5.646;2023-05-14T00:58:38;11.80;99.90
42141;DHT22;27809;51.864;5.646;2023-05-14T01:01:03;11.80;99.90
42141;DHT22;27809;51.864;5.646;2023-05-14T01:03:30;11.70;99.90
42141;DHT22;27809;51.864;5.646;2023-05-14T01:06:06;11.70;99.90
42141;DHT22;27809;51.864;5.646;2023-05-14T01:14:44;11.80;99.90
42141;DHT22;27809;51.864;5.646;2023-05-14T01:17:11;11.80;99.90
42141;DHT22;27809;51.864;5.646;2023-05-14T01:19:41;11.90;99.90
42141;DHT22;27809;51.864;5.646;2023-05-14T01:22:07;11.90;99.90
42141;DHT22;27809;51.864;5.646;2023-05-14T01:24:33;11.90;99.90
42141;DHT22;27809;51.864;5.646;2023-05-14T01:29:31;11.90;99.90
42141;DHT22;27809;51.864;5.646;2023-05-14T01:31:59;11.90;99.90
42141;DHT22;27809;51.864;5.646;2023-05-14T01:34:27;11.90;99.90
42141;DHT22;27809;51.864;5.646;2023-05-14T01:36:54;12.00;99.90
42141;DHT22;27809;51.864;5.646;2023-05-14T01:39:22;12.00;99.90
42141;DHT22;27809;51.864;5.646;2023-05-14T01:41:48;11.90;99.90
42141;DHT22;27809;51.864;5.646;2023-05-14T01:44:15;11.80;99.90
42141;DHT22;27809;51.864;5.646;2023-05-14T01:46:40;11.80;99.90
42141;DHT22;27809;51.864;5.646;2023-05-14T01:49:06;11.80;99.90
42141;DHT22;27809;51.864;5.646;2023-05-14T01:51:31;11.70;99.90
42141;DHT22;27809;51.864;5.646;2023-05-14T01:53:57;11.60;99.90
42141;DHT22;27809;51.864;5.646;2023-05-14T01:56:22;11.60;99.90
42141;DHT22;27809;51.864;5.646;2023-05-14T01:58:48;11.50;99.90
42141;DHT22;27809;51.864;5.646;2023-05-14T02:01:14;11.60;99.90
42141;DHT22;27809;51.864;5.646;2023-05-14T02:03:39;11.60;99.90
42141;DHT22;27809;51.864;5.646;2023-05-14T02:06:05;11.60;99.90
42141;DHT22;27809;51.864;5.646;2023-05-14T02:08:31;11.50;99.90
42141;DHT22;27809;51.864;5.646;2023-05-14T02:10:56;11.40;99.90
42141;DHT22;27809;51.864;5.646;2023-05-14T02:13:22;11.40;99.90
42141;DHT22;27809;51.864;5.646;2023-05-14T02:15:48;11.30;99.90
42141;DHT22;27809;51.864;5.646;2023-05-14T02:18:14;11.30;99.90
42141;DHT22;27809;51.864;5.646;2023-05-14T02:20:39;11.20;99.90
42141;DHT22;27809;51.864;5.646;2023-05-14T02:23:05;11.20;99.90
42141;DHT22;27809;51.864;5.646;2023-05-14T02:25:31;11.00;99.90
42141;DHT22;27809;51.864;5.646;2023-05-14T02:27:56;11.20;99.90
42141;DHT22;27809;51.864;5.646;2023-05-14T02:30:21;11.10;99.90
42141;DHT22;27809;51.864;5.646;2023-05-14T02:32:47;11.00;99.90
42141;DHT22;27809;51.864;5.646;2023-05-14T02:35:13;11.00;99.90
42141;DHT22;27809;51.864;5.646;2023-05-14T02:37:38;10.90;99.90
42141;DHT22;27809;51.864;5.646;2023-05-14T02:40:04;10.90;99.90
42141;DHT22;27809;51.864;5.646;2023-05-14T02:42:30;10.80;99.90
42141;DHT22;27809;51.864;5.646;2023-05-14T02:44:55;10.80;99.90
42141;DHT22;27809;51.864;5.646;2023-05-14T02:47:21;10.80;99.90
42141;DHT22;27809;51.864;5.646;2023-05-14T02:49:46;10.80;99.90
42141;DHT22;27809;51.864;5.646;2023-05-14T02:52:12;10.80;99.90
42141;DHT22;27809;51.864;5.646;2023-05-14T02:54:37;10.60;99.90
42141;DHT22;27809;51.864;5.646;2023-05-14T02:57:03;10.70;99.90
42141;DHT22;27809;51.864;5.646;2023-05-14T02:59:29;10.50;99.90
42141;DHT22;27809;51.864;5.646;2023-05-14T03:01:55;10.50;99.90
42141;DHT22;27809;51.864;5.646;2023-05-14T03:04:21;10.40;99.90
42141;DHT22;27809;51.864;5.646;2023-05-14T03:06:46;10.30;99.90
42141;DHT22;27809;51.864;5.646;2023-05-14T03:09:12;10.20;99.90
42141;DHT22;27809;51.864;5.646;2023-05-14T03:11:38;10.20;99.90
42141;DHT22;27809;51.864;5.646;2023-05-14T03:14:04;10.10;99.90
42141;DHT22;27809;51.864;5.646;2023-05-14T03:16:29;10.10;99.90
42141;DHT22;27809;51.864;5.646;2023-05-14T03:18:55;10.10;99.90
42141;DHT22;27809;51.864;5.646;2023-05-14T03:21:20;10.10;99.90
42141;DHT22;27809;51.864;5.646;2023-05-14T03:23:46;10.20;99.90
42141;DHT22;27809;51.864;5.646;2023-05-14T03:26:11;10.20;99.90
42141;DHT22;27809;51.864;5.646;2023-05-14T03:28:37;10.20;99.90
42141;DHT22;27809;51.864;5.646;2023-05-14T03:31:02;10.00;99.90
42141;DHT22;27809;51.864;5.646;2023-05-14T03:33:28;10.20;99.90
42141;DHT22;27809;51.864;5.646;2023-05-14T03:35:53;10.00;99.90
42141;DHT22;27809;51.864;5.646;2023-05-14T03:38:19;9.90;99.90
42141;DHT22;27809;51.864;5.646;2023-05-14T03:40:45;10.00;99.90
42141;DHT22;27809;51.864;5.646;2023-05-14T03:43:10;10.10;99.90
42141;DHT22;27809;51.864;5.646;2023-05-14T03:45:36;10.10;99.90
42141;DHT22;27809;51.864;5.646;2023-05-14T03:48:01;10.10;99.90
42141;DHT22;27809;51.864;5.646;2023-05-14T03:50:27;10.00;99.90
42141;DHT22;27809;51.864;5.646;2023-05-14T03:52:53;9.90;99.90
42141;DHT22;27809;51.864;5.646;2023-05-14T03:55:19;10.00;99.90
42141;DHT22;27809;51.864;5.646;2023-05-14T03:57:45;10.10;99.90
42141;DHT22;27809;51.864;5.646;2023-05-14T04:00:11;10.00;99.90
42141;DHT22;27809;51.864;5.646;2023-05-14T04:02:36;10.00;99.90
42141;DHT22;27809;51.864;5.646;2023-05-14T04:05:02;9.80;99.90
42141;DHT22;27809;51.864;5.646;2023-05-14T04:07:28;9.90;99.90
42141;DHT22;27809;51.864;5.646;2023-05-14T04:09:54;9.80;99.90
42141;DHT22;27809;51.864;5.646;2023-05-14T04:12:19;9.90;99.90
42141;DHT22;27809;51.864;5.646;2023-05-14T04:14:45;9.90;99.90
42141;DHT22;27809;51.864;5.646;2023-05-14T04:17:10;9.90;99.90
42141;DHT22;27809;51.864;5.646;2023-05-14T04:19:36;9.90;99.90
42141;DHT22;27809;51.864;5.646;2023-05-14T04:22:01;9.80;99.90
42141;DHT22;27809;51.864;5.646;2023-05-14T04:24:27;9.90;99.90
42141;DHT22;27809;51.864;5.646;2023-05-14T04:26:52;9.90;99.90
42141;DHT22;27809;51.864;5.646;2023-05-14T04:29:18;9.80;99.90
42141;DHT22;27809;51.864;5.646;2023-05-14T04:31:43;10.00;99.90
42141;DHT22;27809;51.864;5.646;2023-05-14T04:34:09;10.00;99.90
42141;DHT22;27809;51.864;5.646;2023-05-14T04:36:34;9.90;99.90
42141;DHT22;27809;51.864;5.646;2023-05-14T04:39:00;9.90;99.90
42141;DHT22;27809;51.864;5.646;2023-05-14T04:41:25;9.90;99.90
42141;DHT22;27809;51.864;5.646;2023-05-14T04:43:55;10.00;99.90
42141;DHT22;27809;51.864;5.646;2023-05-14T04:46:20;10.00;99.90
42141;DHT22;27809;51.864;5.646;2023-05-14T04:48:46;10.00;99.90
42141;DHT22;27809;51.864;5.646;2023-05-14T04:51:13;10.10;99.90
42141;DHT22;27809;51.864;5.646;2023-05-14T04:53:38;10.20;99.90
42141;DHT22;27809;51.864;5.646;2023-05-14T04:56:04;10.30;99.90
42141;DHT22;27809;51.864;5.646;2023-05-14T04:58:29;10.30;99.90
42141;DHT22;27809;51.864;5.646;2023-05-14T05:00:57;10.30;99.90
42141;DHT22;27809;51.864;5.646;2023-05-14T05:03:22;10.40;99.90
42141;DHT22;27809;51.864;5.646;2023-05-14T05:05:48;10.40;99.90
42141;DHT22;27809;51.864;5.646;2023-05-14T05:08:13;10.30;99.90
42141;DHT22;27809;51.864;5.646;2023-05-14T05:10:39;10.40;99.90
42141;DHT22;27809;51.864;5.646;2023-05-14T05:13:04;10.50;99.90
42141;DHT22;27809;51.864;5.646;2023-05-14T05:15:30;10.60;99.90
42141;DHT22;27809;51.864;5.646;2023-05-14T05:17:55;10.60;99.90
42141;DHT22;27809;51.864;5.646;2023-05-14T05:20:21;10.70;99.90
42141;DHT22;27809;51.864;5.646;2023-05-14T05:22:47;10.70;99.90
42141;DHT22;27809;51.864;5.646;2023-05-14T05:25:12;10.90;99.90
42141;DHT22;27809;51.864;5.646;2023-05-14T05:27:38;10.80;99.90
42141;DHT22;27809;51.864;5.646;2023-05-14T05:30:04;11.00;99.90
42141;DHT22;27809;51.864;5.646;2023-05-14T05:32:30;10.90;99.90
42141;DHT22;27809;51.864;5.646;2023-05-14T05:34:56;10.80;99.90
42141;DHT22;27809;51.864;5.646;2023-05-14T05:37:21;10.90;99.90
42141;DHT22;27809;51.864;5.646;2023-05-14T05:39:47;10.80;99.90
42141;DHT22;27809;51.864;5.646;2023-05-14T05:42:13;11.00;99.90
42141;DHT22;27809;51.864;5.646;2023-05-14T05:44:38;11.20;99.90
42141;DHT22;27809;51.864;5.646;2023-05-14T05:47:04;11.40;99.90
42141;DHT22;27809;51.864;5.646;2023-05-14T05:49:30;11.40;99.90
42141;DHT22;27809;51.864;5.646;2023-05-14T05:51:55;11.60;99.90
42141;DHT22;27809;51.864;5.646;2023-05-14T05:54:22;11.60;99.90
42141;DHT22;27809;51.864;5.646;2023-05-14T05:56:48;11.80;99.90
42141;DHT22;27809;51.864;5.646;2023-05-14T05:59:14;12.10;99.90
42141;DHT22;27809;51.864;5.646;2023-05-14T06:01:39;12.20;99.90
42141;DHT22;27809;51.864;5.646;2023-05-14T06:04:05;12.40;99.90
42141;DHT22;27809;51.864;5.646;2023-05-14T06:06:31;12.40;99.90
42141;DHT22;27809;51.864;5.646;2023-05-14T06:08:57;13.50;99.90
42141;DHT22;27809;51.864;5.646;2023-05-14T06:11:22;13.10;99.90
42141;DHT22;27809;51.864;5.646;2023-05-14T06:13:48;12.80;99.90
42141;DHT22;27809;51.864;5.646;2023-05-14T06:16:13;13.00;99.90
42141;DHT22;27809;51.864;5.646;2023-05-14T06:18:39;13.20;99.90
42141;DHT22;27809;51.864;5.646;2023-05-14T06:21:05;13.10;99.90
42141;DHT22;27809;51.864;5.646;2023-05-14T06:23:30;12.80;99.90
42141;DHT22;27809;51.864;5.646;2023-05-14T06:25:56;12.80;99.90
42141;DHT22;27809;51.864;5.646;2023-05-14T06:28:21;12.80;99.90
42141;DHT22;27809;51.864;5.646;2023-05-14T06:30:50;12.70;99.90
42141;DHT22;27809;51.864;5.646;2023-05-14T06:33:18;12.70;99.90
42141;DHT22;27809;51.864;5.646;2023-05-14T06:35:45;12.50;99.90
42141;DHT22;27809;51.864;5.646;2023-05-14T06:38:11;12.50;99.90
42141;DHT22;27809;51.864;5.646;2023-05-14T06:40:36;12.40;99.90
42141;DHT22;27809;51.864;5.646;2023-05-14T06:43:02;12.50;99.90
42141;DHT22;27809;51.864;5.646;2023-05-14T06:45:28;12.60;99.90
42141;DHT22;27809;51.864;5.646;2023-05-14T06:47:54;12.70;99.90
42141;DHT22;27809;51.864;5.646;2023-05-14T06:50:19;12.90;99.90
42141;DHT22;27809;51.864;5.646;2023-05-14T06:52:45;13.40;99.90
42141;DHT22;27809;51.864;5.646;2023-05-14T06:55:11;13.50;99.90
42141;DHT22;27809;51.864;5.646;2023-05-14T06:57:37;13.50;99.90
42141;DHT22;27809;51.864;5.646;2023-05-14T07:00:03;13.70;99.90
42141;DHT22;27809;51.864;5.646;2023-05-14T07:02:29;14.00;99.90
42141;DHT22;27809;51.864;5.646;2023-05-14T07:04:54;14.00;99.90
42141;DHT22;27809;51.864;5.646;2023-05-14T07:07:20;14.20;99.90
42141;DHT22;27809;51.864;5.646;2023-05-14T07:09:46;14.30;99.90
42141;DHT22;27809;51.864;5.646;2023-05-14T07:12:12;14.30;99.90
42141;DHT22;27809;51.864;5.646;2023-05-14T07:14:37;14.20;99.90
42141;DHT22;27809;51.864;5.646;2023-05-14T07:17:03;14.10;99.90
42141;DHT22;27809;51.864;5.646;2023-05-14T07:19:28;14.70;99.90
42141;DHT22;27809;51.864;5.646;2023-05-14T07:21:55;14.60;99.90
42141;DHT22;27809;51.864;5.646;2023-05-14T07:24:21;14.80;99.90
42141;DHT22;27809;51.864;5.646;2023-05-14T07:26:47;15.00;99.90
42141;DHT22;27809;51.864;5.646;2023-05-14T07:29:13;16.50;99.90
42141;DHT22;27809;51.864;5.646;2023-05-14T07:31:38;19.40;17.30
42141;DHT22;27809;51.864;5.646;2023-05-14T07:34:04;19.30;14.60
42141;DHT22;27809;51.864;5.646;2023-05-14T07:36:30;20.50;1.00
42141;DHT22;27809;51.864;5.646;2023-05-14T07:38:55;21.00;1.00
42141;DHT22;27809;51.864;5.646;2023-05-14T07:41:21;20.20;1.00
42141;DHT22;27809;51.864;5.646;2023-05-14T07:43:47;20.50;1.00
42141;DHT22;27809;51.864;5.646;2023-05-14T07:46:13;19.80;1.00
42141;DHT22;27809;51.864;5.646;2023-05-14T07:48:39;20.70;1.00
42141;DHT22;27809;51.864;5.646;2023-05-14T07:51:04;21.30;1.00
42141;DHT22;27809;51.864;5.646;2023-05-14T07:53:30;20.80;1.00
42141;DHT22;27809;51.864;5.646;2023-05-14T07:55:55;20.80;1.00
42141;DHT22;27809;51.864;5.646;2023-05-14T07:58:21;19.50;2.30
42141;DHT22;27809;51.864;5.646;2023-05-14T08:00:47;20.40;1.00
42141;DHT22;27809;51.864;5.646;2023-05-14T08:03:13;20.80;1.00
42141;DHT22;27809;51.864;5.646;2023-05-14T08:05:39;21.80;1.00
42141;DHT22;27809;51.864;5.646;2023-05-14T08:08:04;21.50;1.00
42141;DHT22;27809;51.864;5.646;2023-05-14T08:10:30;21.90;1.00
42141;DHT22;27809;51.864;5.646;2023-05-14T08:12:55;22.30;1.00
42141;DHT22;27809;51.864;5.646;2023-05-14T08:15:21;22.10;1.00
42141;DHT22;27809;51.864;5.646;2023-05-14T08:17:47;22.20;1.00
42141;DHT22;27809;51.864;5.646;2023-05-14T08:20:12;22.50;1.00
42141;DHT22;27809;51.864;5.646;2023-05-14T08:22:38;22.10;1.00
42141;DHT22;27809;51.864;5.646;2023-05-14T08:25:04;21.90;1.00
42141;DHT22;27809;51.864;5.646;2023-05-14T08:27:31;22.00;1.00
42141;DHT22;27809;51.864;5.646;2023-05-14T08:29:56;21.80;1.00
42141;DHT22;27809;51.864;5.646;2023-05-14T08:32:22;22.40;1.00
42141;DHT22;27809;51.864;5.646;2023-05-14T08:34:47;22.90;1.00
42141;DHT22;27809;51.864;5.646;2023-05-14T08:37:13;22.40;1.00
42141;DHT22;27809;51.864;5.646;2023-05-14T08:39:38;22.40;1.00
42141;DHT22;27809;51.864;5.646;2023-05-14T08:42:05;21.80;1.00
42141;DHT22;27809;51.864;5.646;2023-05-14T08:44:48;22.40;1.00
42141;DHT22;27809;51.864;5.646;2023-05-14T08:47:17;23.10;1.00
42141;DHT22;27809;51.864;5.646;2023-05-14T08:49:46;23.20;1.00
42141;DHT22;27809;51.864;5.646;2023-05-14T08:52:15;23.20;1.00
42141;DHT22;27809;51.864;5.646;2023-05-14T08:54:42;23.40;1.00
42141;DHT22;27809;51.864;5.646;2023-05-14T08:57:10;22.80;1.00
42141;DHT22;27809;51.864;5.646;2023-05-14T08:59:36;22.80;1.00
42141;DHT22;27809;51.864;5.646;2023-05-14T09:02:02;22.70;1.00
42141;DHT22;27809;51.864;5.646;2023-05-14T09:04:31;22.80;1.00
42141;DHT22;27809;51.864;5.646;2023-05-14T09:06:59;21.30;1.00
42141;DHT22;27809;51.864;5.646;2023-05-14T09:09:26;19.70;1.00
42141;DHT22;27809;51.864;5.646;2023-05-14T09:11:52;20.60;1.00
42141;DHT22;27809;51.864;5.646;2023-05-14T09:14:19;22.10;1.00
42141;DHT22;27809;51.864;5.646;2023-05-14T09:16:47;22.90;1.00
42141;DHT22;27809;51.864;5.646;2023-05-14T09:19:13;23.30;1.00
42141;DHT22;27809;51.864;5.646;2023-05-14T09:21:40;21.30;1.00
42141;DHT22;27809;51.864;5.646;2023-05-14T09:24:06;22.20;1.00
42141;DHT22;27809;51.864;5.646;2023-05-14T09:26:33;22.40;1.00
42141;DHT22;27809;51.864;5.646;2023-05-14T09:29:00;22.10;1.00
42141;DHT22;27809;51.864;5.646;2023-05-14T09:31:29;22.50;1.00
42141;DHT22;27809;51.864;5.646;2023-05-14T09:33:56;22.80;1.00
42141;DHT22;27809;51.864;5.646;2023-05-14T09:36:22;22.80;1.00
42141;DHT22;27809;51.864;5.646;2023-05-14T09:38:49;22.80;1.00
42141;DHT22;27809;51.864;5.646;2023-05-14T09:41:15;22.90;1.00
42141;DHT22;27809;51.864;5.646;2023-05-14T09:43:41;23.00;1.00
42141;DHT22;27809;51.864;5.646;2023-05-14T09:46:06;22.30;1.00
42141;DHT22;27809;51.864;5.646;2023-05-14T09:48:32;22.50;1.00
42141;DHT22;27809;51.864;5.646;2023-05-14T09:50:57;22.90;1.00
42141;DHT22;27809;51.864;5.646;2023-05-14T09:53:23;23.10;1.00
42141;DHT22;27809;51.864;5.646;2023-05-14T09:55:49;23.00;1.00
42141;DHT22;27809;51.864;5.646;2023-05-14T09:58:15;23.10;1.00
42141;DHT22;27809;51.864;5.646;2023-05-14T10:00:46;23.60;1.00
42141;DHT22;27809;51.864;5.646;2023-05-14T10:03:13;23.40;1.00
42141;DHT22;27809;51.864;5.646;2023-05-14T10:05:40;23.30;1.00
42141;DHT22;27809;51.864;5.646;2023-05-14T10:08:20;23.50;1.00
42141;DHT22;27809;51.864;5.646;2023-05-14T10:10:47;22.50;1.00
42141;DHT22;27809;51.864;5.646;2023-05-14T10:13:22;23.00;1.00
42141;DHT22;27809;51.864;5.646;2023-05-14T10:18:42;22.50;1.00
42141;DHT22;27809;51.864;5.646;2023-05-14T10:21:13;23.80;1.00
42141;DHT22;27809;51.864;5.646;2023-05-14T10:23:39;23.30;1.00
42141;DHT22;27809;51.864;5.646;2023-05-14T10:26:05;23.30;1.00
42141;DHT22;27809;51.864;5.646;2023-05-14T10:28:32;22.60;1.00
42141;DHT22;27809;51.864;5.646;2023-05-14T10:31:01;23.00;1.00
42141;DHT22;27809;51.864;5.646;2023-05-14T10:33:27;23.30;1.00
42141;DHT22;27809;51.864;5.646;2023-05-14T10:36:05;23.50;1.00
42141;DHT22;27809;51.864;5.646;2023-05-14T10:38:35;23.80;1.00
42141;DHT22;27809;51.864;5.646;2023-05-14T10:41:01;23.70;1.00
42141;DHT22;27809;51.864;5.646;2023-05-14T10:43:28;23.90;1.00
42141;DHT22;27809;51.864;5.646;2023-05-14T10:45:55;23.50;1.00
42141;DHT22;27809;51.864;5.646;2023-05-14T10:48:21;23.30;1.00
42141;DHT22;27809;51.864;5.646;2023-05-14T10:50:48;23.60;1.00
42141;DHT22;27809;51.864;5.646;2023-05-14T10:53:14;23.90;1.00
42141;DHT22;27809;51.864;5.646;2023-05-14T10:55:41;24.10;1.00
42141;DHT22;27809;51.864;5.646;2023-05-14T10:58:09;23.60;1.00
42141;DHT22;27809;51.864;5.646;2023-05-14T11:00:37;23.80;1.00
42141;DHT22;27809;51.864;5.646;2023-05-14T11:03:04;23.90;1.00
42141;DHT22;27809;51.864;5.646;2023-05-14T11:05:30;24.10;1.00
42141;DHT22;27809;51.864;5.646;2023-05-14T11:07:57;23.50;1.00
42141;DHT22;27809;51.864;5.646;2023-05-14T11:10:23;23.70;1.00
42141;DHT22;27809;51.864;5.646;2023-05-14T11:12:55;23.80;1.00
42141;DHT22;27809;51.864;5.646;2023-05-14T11:15:23;23.60;1.00
42141;DHT22;27809;51.864;5.646;2023-05-14T11:17:50;23.80;1.00
42141;DHT22;27809;51.864;5.646;2023-05-14T11:20:16;23.70;1.00
42141;DHT22;27809;51.864;5.646;2023-05-14T11:22:42;23.90;1.00
42141;DHT22;27809;51.864;5.646;2023-05-14T11:25:09;23.90;1.00
42141;DHT22;27809;51.864;5.646;2023-05-14T11:27:37;23.70;1.00
42141;DHT22;27809;51.864;5.646;2023-05-14T11:30:03;23.50;1.00
42141;DHT22;27809;51.864;5.646;2023-05-14T11:32:31;23.60;1.00
42141;DHT22;27809;51.864;5.646;2023-05-14T11:34:56;23.70;1.00
42141;DHT22;27809;51.864;5.646;2023-05-14T11:37:22;23.60;1.00
42141;DHT22;27809;51.864;5.646;2023-05-14T11:39:52;23.40;1.00
42141;DHT22;27809;51.864;5.646;2023-05-14T11:42:19;23.30;1.00
42141;DHT22;27809;51.864;5.646;2023-05-14T11:44:49;23.80;1.00
42141;DHT22;27809;51.864;5.646;2023-05-14T11:47:16;24.20;1.00
42141;DHT22;27809;51.864;5.646;2023-05-14T11:49:42;24.50;1.00
42141;DHT22;27809;51.864;5.646;2023-05-14T11:52:09;24.50;1.00
42141;DHT22;27809;51.864;5.646;2023-05-14T11:54:43;24.40;1.00
42141;DHT22;27809;51.864;5.646;2023-05-14T11:57:17;24.30;1.00
42141;DHT22;27809;51.864;5.646;2023-05-14T11:59:43;24.30;1.00
42141;DHT22;27809;51.864;5.646;2023-05-14T12:02:11;24.30;1.00
42141;DHT22;27809;51.864;5.646;2023-05-14T12:04:37;24.10;1.00
42141;DHT22;27809;51.864;5.646;2023-05-14T12:07:14;24.00;1.00
42141;DHT22;27809;51.864;5.646;2023-05-14T12:09:45;23.80;1.00
42141;DHT22;27809;51.864;5.646;2023-05-14T12:12:15;23.90;1.00
42141;DHT22;27809;51.864;5.646;2023-05-14T12:14:42;23.60;1.00
42141;DHT22;27809;51.864;5.646;2023-05-14T12:17:18;23.40;1.00
42141;DHT22;27809;51.864;5.646;2023-05-14T12:19:49;23.30;1.00
42141;DHT22;27809;51.864;5.646;2023-05-14T12:22:20;22.80;1.00
42141;DHT22;27809;51.864;5.646;2023-05-14T12:24:56;22.90;1.00
42141;DHT22;27809;51.864;5.646;2023-05-14T12:27:24;23.20;1.00
42141;DHT22;27809;51.864;5.646;2023-05-14T12:30:00;23.30;1.00
42141;DHT22;27809;51.864;5.646;2023-05-14T12:32:29;23.30;1.00
42141;DHT22;27809;51.864;5.646;2023-05-14T12:34:55;23.30;1.00
42141;DHT22;27809;51.864;5.646;2023-05-14T12:37:20;23.30;1.00
42141;DHT22;27809;51.864;5.646;2023-05-14T12:39:47;23.30;1.00
42141;DHT22;27809;51.864;5.646;2023-05-14T12:42:13;22.90;1.00
42141;DHT22;27809;51.864;5.646;2023-05-14T12:44:39;23.20;1.00
42141;DHT22;27809;51.864;5.646;2023-05-14T12:47:05;23.30;1.00
42141;DHT22;27809;51.864;5.646;2023-05-14T12:49:31;23.30;1.00
42141;DHT22;27809;51.864;5.646;2023-05-14T12:51:56;23.30;1.00
42141;DHT22;27809;51.864;5.646;2023-05-14T12:54:22;23.30;1.00
42141;DHT22;27809;51.864;5.646;2023-05-14T12:56:48;23.30;1.00
42141;DHT22;27809;51.864;5.646;2023-05-14T12:59:13;23.10;1.00
42141;DHT22;27809;51.864;5.646;2023-05-14T13:01:40;23.40;1.00
42141;DHT22;27809;51.864;5.646;2023-05-14T13:04:06;23.30;1.00
42141;DHT22;27809;51.864;5.646;2023-05-14T13:06:32;22.00;1.00
42141;DHT22;27809;51.864;5.646;2023-05-14T13:08:58;21.60;1.00
42141;DHT22;27809;51.864;5.646;2023-05-14T13:11:26;21.20;1.00
42141;DHT22;27809;51.864;5.646;2023-05-14T13:13:53;21.10;1.00
42141;DHT22;27809;51.864;5.646;2023-05-14T13:16:19;21.20;1.00
42141;DHT22;27809;51.864;5.646;2023-05-14T13:18:45;21.20;1.00
42141;DHT22;27809;51.864;5.646;2023-05-14T13:21:10;21.10;1.00
42141;DHT22;27809;51.864;5.646;2023-05-14T13:23:37;20.90;1.00
42141;DHT22;27809;51.864;5.646;2023-05-14T13:26:02;20.90;1.00
42141;DHT22;27809;51.864;5.646;2023-05-14T13:28:28;20.60;1.00
42141;DHT22;27809;51.864;5.646;2023-05-14T13:31:10;20.50;1.00
42141;DHT22;27809;51.864;5.646;2023-05-14T13:33:37;20.40;1.00
42141;DHT22;27809;51.864;5.646;2023-05-14T13:36:03;20.40;1.00
42141;DHT22;27809;51.864;5.646;2023-05-14T13:38:28;20.20;1.00
42141;DHT22;27809;51.864;5.646;2023-05-14T13:40:54;19.90;1.00
42141;DHT22;27809;51.864;5.646;2023-05-14T13:43:22;19.70;9.60
42141;DHT22;27809;51.864;5.646;2023-05-14T13:45:48;19.30;9.10
42141;DHT22;27809;51.864;5.646;2023-05-14T13:48:14;19.10;21.90
42141;DHT22;27809;51.864;5.646;2023-05-14T13:50:39;19.00;16.30
42141;DHT22;27809;51.864;5.646;2023-05-14T13:53:05;19.00;9.80
42141;DHT22;27809;51.864;5.646;2023-05-14T13:55:30;19.10;3.70
42141;DHT22;27809;51.864;5.646;2023-05-14T13:57:56;18.80;1.00
42141;DHT22;27809;51.864;5.646;2023-05-14T14:00:23;18.80;1.00
42141;DHT22;27809;51.864;5.646;2023-05-14T14:02:49;18.40;1.00
42141;DHT22;27809;51.864;5.646;2023-05-14T14:05:14;18.50;1.00
42141;DHT22;27809;51.864;5.646;2023-05-14T14:07:40;18.70;1.00
42141;DHT22;27809;51.864;5.646;2023-05-14T14:10:06;18.90;1.00
42141;DHT22;27809;51.864;5.646;2023-05-14T14:12:32;18.80;1.00
42141;DHT22;27809;51.864;5.646;2023-05-14T14:14:57;19.00;1.00
42141;DHT22;27809;51.864;5.646;2023-05-14T14:17:23;19.00;1.00
42141;DHT22;27809;51.864;5.646;2023-05-14T14:19:48;19.10;1.00
42141;DHT22;27809;51.864;5.646;2023-05-14T14:22:14;19.40;1.00
42141;DHT22;27809;51.864;5.646;2023-05-14T14:24:42;19.50;1.00
42141;DHT22;27809;51.864;5.646;2023-05-14T14:27:07;19.60;1.00
42141;DHT22;27809;51.864;5.646;2023-05-14T14:29:33;19.70;1.00
42141;DHT22;27809;51.864;5.646;2023-05-14T14:31:58;19.60;1.00
42141;DHT22;27809;51.864;5.646;2023-05-14T14:34:24;19.60;1.00
42141;DHT22;27809;51.864;5.646;2023-05-14T14:36:49;19.50;1.00
42141;DHT22;27809;51.864;5.646;2023-05-14T14:39:15;19.50;1.00
42141;DHT22;27809;51.864;5.646;2023-05-14T14:41:40;19.50;1.00
42141;DHT22;27809;51.864;5.646;2023-05-14T14:44:06;19.40;1.00
42141;DHT22;27809;51.864;5.646;2023-05-14T14:46:31;19.30;1.00
42141;DHT22;27809;51.864;5.646;2023-05-14T14:48:57;19.40;1.00
42141;DHT22;27809;51.864;5.646;2023-05-14T14:51:23;19.40;1.00
42141;DHT22;27809;51.864;5.646;2023-05-14T14:53:48;19.50;1.00
42141;DHT22;27809;51.864;5.646;2023-05-14T14:56:14;19.50;1.00
42141;DHT22;27809;51.864;5.646;2023-05-14T14:58:40;19.50;1.00
42141;DHT22;27809;51.864;5.646;2023-05-14T15:01:05;19.60;1.00
42141;DHT22;27809;51.864;5.646;2023-05-14T15:03:31;19.70;1.00
42141;DHT22;27809;51.864;5.646;2023-05-14T15:05:56;19.80;1.00
42141;DHT22;27809;51.864;5.646;2023-05-14T15:08:24;19.80;1.00
42141;DHT22;27809;51.864;5.646;2023-05-14T15:10:54;20.10;1.00
42141;DHT22;27809;51.864;5.646;2023-05-14T15:13:20;20.40;1.00
42141;DHT22;27809;51.864;5.646;2023-05-14T15:15:45;21.00;1.00
42141;DHT22;27809;51.864;5.646;2023-05-14T15:18:11;21.50;1.00
42141;DHT22;27809;51.864;5.646;2023-05-14T15:20:37;21.80;1.00
42141;DHT22;27809;51.864;5.646;2023-05-14T15:23:02;22.00;1.00
42141;DHT22;27809;51.864;5.646;2023-05-14T15:25:28;22.30;1.00
42141;DHT22;27809;51.864;5.646;2023-05-14T15:27:54;23.00;1.00
42141;DHT22;27809;51.864;5.646;2023-05-14T15:30:19;23.10;1.00
42141;DHT22;27809;51.864;5.646;2023-05-14T15:32:45;23.20;1.00
42141;DHT22;27809;51.864;5.646;2023-05-14T15:35:11;22.90;1.00
42141;DHT22;27809;51.864;5.646;2023-05-14T15:37:39;23.00;1.00
42141;DHT22;27809;51.864;5.646;2023-05-14T15:40:05;22.90;1.00
42141;DHT22;27809;51.864;5.646;2023-05-14T15:42:35;23.00;1.00
42141;DHT22;27809;51.864;5.646;2023-05-14T15:45:01;22.90;1.00